Observations

82.4 °F / 28.0 °C
W at 5 MPH
80%
75.9°F / 24.4 °C
29.88" (1011 mb)
10 mile(s)
clear
2019.09.16 1020 UTC

Observations

Surface


Raw METARs

2019/09/16 10:20
PKWA 161020Z AUTO 26004KT 10SM CLR 28/24 A2988 RMK AO2 T02800244

Translated METAR

Kwajalein, Bucholz AAF, Kwajalein KMR ATOL Airport, Marshall Islands (PKWA) 08-43N 167-44E 2M
Sep 16, 2019 - 06:20 AM EDT / 2019.09.16 1020 UTC
Wind: from the W (260 degrees) at 5 MPH (4 KT):0
Visibility: 10 mile(s):0
Sky conditions: clear
Temperature: 82.4 F (28.0 C)
Dew Point: 75.9 F (24.4 C)
Relative Humidity: 80%
Pressure (altimeter): 29.88 in. Hg (1011 hPa)
ob: PKWA 161020Z AUTO 26004KT 10SM CLR 28/24 A2988 RMK AO2 T02800244
cycle: 10



Upper Air


Latest Skew-T

Skew T Diagram

Latest Data File